Share

Buffalo, WY

Esponda Ranch (KWYBUFFA8) Elev 4636 ft | 44.32 °N, 106.67 °W | Change Station

Current weather conditions updated 14 minutes ago

Clear
Clear
69.3 °F
Feels Like 69.3 °F
N
14.0
Wind Variable Wind from SW
Gusts 15.0 mph
Sunrise 6:17 AM
Sunset 7:55 PM
Moon Waning Gibbous

Today is forecast to be Warmer than yesterday.

Pressure 29.56 in
Visibility 10.0 miles
Clouds Clear
Dew Point 33 °F
Humidity 26%
Rainfall 0.00 in
Snow Depth Not available.
UV 10 out of 16
Pollen 10.30 out of 12
Air Quality Not available.
Flu Activity Sporadic
METAR KBYG 181853Z AUTO 33009G19KT 10SM CLR 20/M02 A2967 RMK AO2 PK WND 23033/1817 SLP009 T02001017

More Conditions Fewer Conditions

Pressure 29.56 in
Visibility 10.0 miles
Clouds Clear
Dew Point 33 °F
Humidity 26%
Rainfall 0.00 in
Snow Depth Not available.
UV 10 out of 16
Pollen 10.30 out of 12
Air Quality Not available.
Flu Activity Sporadic
METAR KBYG 181853Z AUTO 33009G19KT 10SM CLR 20/M02 A2967 RMK AO2 PK WND 23033/1817 SLP009 T02001017

More Conditions Fewer Conditions

10-Day Weather Forecast

Almanac

Astronomy

Apr. 18, 2014 Rise Set
Actual Time 6:17 AM MDT 7:55 PM MDT
Civil Twilight 5:47 AM MDT 8:25 PM MDT
Nautical Twilight 5:10 AM MDT 9:02 PM MDT
Astronomical Twilight 4:30 AM MDT 9:43 PM MDT
Moon 11:48 PM MDT 8:37 AM MDT
Length of Visible Light 14h 38m
Length of Day
13h 37m
Tomorrow will be 2m 53s longer.
Waning Gibbous, 86% of the Moon is Illuminated
Today
Waning Gibbous
Apr 22
Last Quarter
Apr 29
New
May 6
First Quarter
May 14
Full

Today's Extremes

State Highs State Lows

Community

  • What's for Lunch?
    What's for Lunch?
  • SUNRISE THROUGH THE TREES.
    SUNRISE THROUGH THE TREES.
  • Dog Wood Blossoms
    Dog Wood Blossoms
  • Morning Light
    Morning Light
  • New Day
    New Day

WunderPhotos

Upload Photos

1,702,470 photos uploaded!

Nearby

Snow Depth

Station Depth Elevation
Casper Mountain 52 in 7850 ft
Reno Hill 58 in 8500 ft
Laprele Creek 26 in 8375 ft
Windy Peak 27 in 7900 ft
Townsend Creek 25 in 8700 ft

Coastal Water Temperatures

Place Temperature
No Stations Reporting

Earthquake Activity

City Distance Mag. Time & Date
No recent earthquake activity has been reported nearby.
Minimum magnitude displayed is 2.5.

Nearby Weather Stations

Station Location Temp. Dew Point Humidity Wind Precip. Elev Updated Type
Esponda Ranch, Buffalo, WY 69.3 °F 33 °F 26% SW  at  14.0 mph 0.00 in / hr 4636 ft 1:11 PM MDT Normal
Merlin Ranch, Buffalo, WY 69.8 °F 33 °F 26% SW  at  16.0 mph 0.00 in / hr 4331 ft 1:19 PM MDT Normal
Thorne Rider & Fish Hatchery, Story, WY 63.8 °F 36 °F 36% NNW  at  2.0 mph 0.00 in / hr 5285 ft 1:18 PM MDT Normal

Show More Stations Show Fewer Stations

What do you think?

We're not finished. Please let us know what you like, what you don't like, and what you are still missing.